sensor_id;sensor_type;location;lat;lon;timestamp;P1;durP1;ratioP1;P2;durP2;ratioP2
42096;SDS011;27754;45.414;11.084;2024-01-25T00:01:55;92.90;;;50.70;;
42096;SDS011;27754;45.414;11.084;2024-01-25T00:04:22;88.55;;;48.45;;
42096;SDS011;27754;45.414;11.084;2024-01-25T00:06:49;89.95;;;49.15;;
42096;SDS011;27754;45.414;11.084;2024-01-25T00:09:17;86.43;;;49.25;;
42096;SDS011;27754;45.414;11.084;2024-01-25T00:11:44;84.43;;;47.38;;
42096;SDS011;27754;45.414;11.084;2024-01-25T00:14:10;90.35;;;50.03;;
42096;SDS011;27754;45.414;11.084;2024-01-25T00:16:41;84.20;;;48.88;;
42096;SDS011;27754;45.414;11.084;2024-01-25T00:19:08;85.57;;;49.65;;
42096;SDS011;27754;45.414;11.084;2024-01-25T00:21:41;90.47;;;47.30;;
42096;SDS011;27754;45.414;11.084;2024-01-25T00:24:11;83.68;;;50.08;;
42096;SDS011;27754;45.414;11.084;2024-01-25T00:26:39;90.72;;;49.28;;
42096;SDS011;27754;45.414;11.084;2024-01-25T00:29:06;85.72;;;49.35;;
42096;SDS011;27754;45.414;11.084;2024-01-25T00:31:33;87.57;;;48.65;;
42096;SDS011;27754;45.414;11.084;2024-01-25T00:34:00;86.35;;;49.08;;
42096;SDS011;27754;45.414;11.084;2024-01-25T00:36:28;90.70;;;48.55;;
42096;SDS011;27754;45.414;11.084;2024-01-25T00:38:56;90.85;;;49.78;;
42096;SDS011;27754;45.414;11.084;2024-01-25T00:41:23;84.43;;;48.58;;
42096;SDS011;27754;45.414;11.084;2024-01-25T00:43:50;83.65;;;48.03;;
42096;SDS011;27754;45.414;11.084;2024-01-25T00:46:17;86.00;;;47.55;;
42096;SDS011;27754;45.414;11.084;2024-01-25T00:48:45;88.20;;;47.70;;
42096;SDS011;27754;45.414;11.084;2024-01-25T00:51:14;86.18;;;46.85;;
42096;SDS011;27754;45.414;11.084;2024-01-25T00:53:45;86.85;;;47.55;;
42096;SDS011;27754;45.414;11.084;2024-01-25T00:56:12;89.47;;;47.58;;
42096;SDS011;27754;45.414;11.084;2024-01-25T00:58:39;87.15;;;49.50;;
42096;SDS011;27754;45.414;11.084;2024-01-25T01:01:06;86.00;;;50.33;;
42096;SDS011;27754;45.414;11.084;2024-01-25T01:03:34;88.95;;;48.25;;
42096;SDS011;27754;45.414;11.084;2024-01-25T01:06:01;79.43;;;47.70;;
42096;SDS011;27754;45.414;11.084;2024-01-25T01:08:29;77.07;;;43.08;;
42096;SDS011;27754;45.414;11.084;2024-01-25T01:10:56;78.80;;;44.22;;
42096;SDS011;27754;45.414;11.084;2024-01-25T01:13:23;78.40;;;44.28;;
42096;SDS011;27754;45.414;11.084;2024-01-25T01:15:50;86.35;;;46.00;;
42096;SDS011;27754;45.414;11.084;2024-01-25T01:18:17;79.72;;;47.55;;
42096;SDS011;27754;45.414;11.084;2024-01-25T01:20:44;83.03;;;48.72;;
42096;SDS011;27754;45.414;11.084;2024-01-25T01:23:11;78.30;;;44.42;;
42096;SDS011;27754;45.414;11.084;2024-01-25T01:25:38;87.05;;;48.10;;
42096;SDS011;27754;45.414;11.084;2024-01-25T01:28:05;87.07;;;47.65;;
42096;SDS011;27754;45.414;11.084;2024-01-25T01:30:32;84.75;;;48.22;;
42096;SDS011;27754;45.414;11.084;2024-01-25T01:32:59;86.75;;;50.63;;
42096;SDS011;27754;45.414;11.084;2024-01-25T01:35:27;83.18;;;48.35;;
42096;SDS011;27754;45.414;11.084;2024-01-25T01:37:54;88.25;;;49.97;;
42096;SDS011;27754;45.414;11.084;2024-01-25T01:40:21;85.43;;;46.70;;
42096;SDS011;27754;45.414;11.084;2024-01-25T01:42:48;82.95;;;44.97;;
42096;SDS011;27754;45.414;11.084;2024-01-25T01:45:16;72.57;;;43.47;;
42096;SDS011;27754;45.414;11.084;2024-01-25T01:47:43;75.10;;;43.70;;
42096;SDS011;27754;45.414;11.084;2024-01-25T01:50:10;83.47;;;43.97;;
42096;SDS011;27754;45.414;11.084;2024-01-25T01:52:38;79.28;;;44.33;;
42096;SDS011;27754;45.414;11.084;2024-01-25T01:55:06;77.18;;;41.80;;
42096;SDS011;27754;45.414;11.084;2024-01-25T01:57:35;79.07;;;43.75;;
42096;SDS011;27754;45.414;11.084;2024-01-25T02:00:03;78.70;;;46.72;;
42096;SDS011;27754;45.414;11.084;2024-01-25T02:02:37;74.60;;;43.47;;
42096;SDS011;27754;45.414;11.084;2024-01-25T02:05:05;78.40;;;44.35;;
42096;SDS011;27754;45.414;11.084;2024-01-25T02:07:32;79.93;;;42.53;;
42096;SDS011;27754;45.414;11.084;2024-01-25T02:09:59;82.90;;;45.03;;
42096;SDS011;27754;45.414;11.084;2024-01-25T02:12:26;77.38;;;43.42;;
42096;SDS011;27754;45.414;11.084;2024-01-25T02:14:53;77.03;;;43.40;;
42096;SDS011;27754;45.414;11.084;2024-01-25T02:17:20;77.72;;;40.40;;
42096;SDS011;27754;45.414;11.084;2024-01-25T02:19:47;81.95;;;44.95;;
42096;SDS011;27754;45.414;11.084;2024-01-25T02:22:16;75.30;;;44.42;;
42096;SDS011;27754;45.414;11.084;2024-01-25T02:24:45;83.38;;;44.20;;
42096;SDS011;27754;45.414;11.084;2024-01-25T02:27:12;85.10;;;47.08;;
42096;SDS011;27754;45.414;11.084;2024-01-25T02:29:39;83.85;;;45.90;;
42096;SDS011;27754;45.414;11.084;2024-01-25T02:32:06;83.65;;;47.17;;
42096;SDS011;27754;45.414;11.084;2024-01-25T02:34:33;73.20;;;42.88;;
42096;SDS011;27754;45.414;11.084;2024-01-25T02:37:00;81.45;;;48.25;;
42096;SDS011;27754;45.414;11.084;2024-01-25T02:39:27;86.47;;;48.72;;
42096;SDS011;27754;45.414;11.084;2024-01-25T02:41:54;78.60;;;44.47;;
42096;SDS011;27754;45.414;11.084;2024-01-25T02:44:21;83.28;;;46.08;;
42096;SDS011;27754;45.414;11.084;2024-01-25T02:46:48;81.40;;;45.47;;
42096;SDS011;27754;45.414;11.084;2024-01-25T02:49:16;86.25;;;45.78;;
42096;SDS011;27754;45.414;11.084;2024-01-25T02:51:43;78.57;;;44.83;;
42096;SDS011;27754;45.414;11.084;2024-01-25T02:54:10;81.65;;;44.08;;
42096;SDS011;27754;45.414;11.084;2024-01-25T02:56:37;79.95;;;44.70;;
42096;SDS011;27754;45.414;11.084;2024-01-25T02:59:04;87.30;;;49.72;;
42096;SDS011;27754;45.414;11.084;2024-01-25T03:01:39;71.63;;;42.60;;
42096;SDS011;27754;45.414;11.084;2024-01-25T03:06:34;80.40;;;43.60;;
42096;SDS011;27754;45.414;11.084;2024-01-25T03:09:02;84.68;;;44.67;;
42096;SDS011;27754;45.414;11.084;2024-01-25T03:11:32;82.80;;;44.70;;
42096;SDS011;27754;45.414;11.084;2024-01-25T03:13:59;79.43;;;45.00;;
42096;SDS011;27754;45.414;11.084;2024-01-25T03:16:26;78.65;;;45.22;;
42096;SDS011;27754;45.414;11.084;2024-01-25T03:18:53;81.70;;;46.38;;
42096;SDS011;27754;45.414;11.084;2024-01-25T03:21:20;75.88;;;43.97;;
42096;SDS011;27754;45.414;11.084;2024-01-25T03:23:47;81.07;;;45.70;;
42096;SDS011;27754;45.414;11.084;2024-01-25T03:26:14;75.22;;;44.20;;
42096;SDS011;27754;45.414;11.084;2024-01-25T03:28:41;76.78;;;43.60;;
42096;SDS011;27754;45.414;11.084;2024-01-25T03:31:08;76.72;;;45.17;;
42096;SDS011;27754;45.414;11.084;2024-01-25T03:33:35;79.03;;;44.22;;
42096;SDS011;27754;45.414;11.084;2024-01-25T03:36:03;85.50;;;46.45;;
42096;SDS011;27754;45.414;11.084;2024-01-25T03:38:31;80.97;;;45.85;;
42096;SDS011;27754;45.414;11.084;2024-01-25T03:40:58;83.13;;;46.58;;
42096;SDS011;27754;45.414;11.084;2024-01-25T03:43:25;87.07;;;47.05;;
42096;SDS011;27754;45.414;11.084;2024-01-25T03:46:04;78.85;;;45.13;;
42096;SDS011;27754;45.414;11.084;2024-01-25T03:48:31;75.25;;;42.10;;
42096;SDS011;27754;45.414;11.084;2024-01-25T03:50:58;77.68;;;43.28;;
42096;SDS011;27754;45.414;11.084;2024-01-25T03:53:25;80.38;;;44.33;;
42096;SDS011;27754;45.414;11.084;2024-01-25T03:55:52;76.57;;;43.17;;
42096;SDS011;27754;45.414;11.084;2024-01-25T03:58:19;76.63;;;43.03;;
42096;SDS011;27754;45.414;11.084;2024-01-25T04:00:46;80.55;;;46.45;;
42096;SDS011;27754;45.414;11.084;2024-01-25T04:03:14;79.63;;;42.55;;
42096;SDS011;27754;45.414;11.084;2024-01-25T04:05:41;77.65;;;44.00;;
42096;SDS011;27754;45.414;11.084;2024-01-25T04:08:08;78.05;;;43.67;;
42096;SDS011;27754;45.414;11.084;2024-01-25T04:10:35;77.13;;;42.58;;
42096;SDS011;27754;45.414;11.084;2024-01-25T04:13:02;72.97;;;41.80;;
42096;SDS011;27754;45.414;11.084;2024-01-25T04:15:33;78.70;;;44.40;;
42096;SDS011;27754;45.414;11.084;2024-01-25T04:18:01;74.20;;;43.03;;
42096;SDS011;27754;45.414;11.084;2024-01-25T04:20:29;73.72;;;41.45;;
42096;SDS011;27754;45.414;11.084;2024-01-25T04:22:57;88.35;;;46.20;;
42096;SDS011;27754;45.414;11.084;2024-01-25T04:25:25;80.47;;;42.88;;
42096;SDS011;27754;45.414;11.084;2024-01-25T04:27:53;76.30;;;43.33;;
42096;SDS011;27754;45.414;11.084;2024-01-25T04:30:20;80.60;;;42.65;;
42096;SDS011;27754;45.414;11.084;2024-01-25T04:32:47;75.13;;;43.25;;
42096;SDS011;27754;45.414;11.084;2024-01-25T04:35:14;81.00;;;43.30;;
42096;SDS011;27754;45.414;11.084;2024-01-25T04:37:42;77.80;;;45.17;;
42096;SDS011;27754;45.414;11.084;2024-01-25T04:40:09;76.88;;;44.38;;
42096;SDS011;27754;45.414;11.084;2024-01-25T04:42:36;80.03;;;44.67;;
42096;SDS011;27754;45.414;11.084;2024-01-25T04:45:04;74.25;;;41.30;;
42096;SDS011;27754;45.414;11.084;2024-01-25T04:47:31;69.22;;;39.78;;
42096;SDS011;27754;45.414;11.084;2024-01-25T04:49:58;71.93;;;40.05;;
42096;SDS011;27754;45.414;11.084;2024-01-25T04:52:25;63.65;;;37.85;;
42096;SDS011;27754;45.414;11.084;2024-01-25T04:54:53;63.67;;;37.42;;
42096;SDS011;27754;45.414;11.084;2024-01-25T04:57:19;69.10;;;37.42;;
42096;SDS011;27754;45.414;11.084;2024-01-25T04:59:46;66.78;;;38.70;;
42096;SDS011;27754;45.414;11.084;2024-01-25T05:02:13;66.93;;;37.97;;
42096;SDS011;27754;45.414;11.084;2024-01-25T05:04:40;66.95;;;38.90;;
42096;SDS011;27754;45.414;11.084;2024-01-25T05:07:11;74.60;;;39.03;;
42096;SDS011;27754;45.414;11.084;2024-01-25T05:09:38;72.22;;;40.33;;
42096;SDS011;27754;45.414;11.084;2024-01-25T05:12:05;69.55;;;39.40;;
42096;SDS011;27754;45.414;11.084;2024-01-25T05:14:32;81.03;;;45.08;;
42096;SDS011;27754;45.414;11.084;2024-01-25T05:16:59;76.10;;;41.38;;
42096;SDS011;27754;45.414;11.084;2024-01-25T05:19:26;75.38;;;39.97;;
42096;SDS011;27754;45.414;11.084;2024-01-25T05:21:53;75.57;;;42.10;;
42096;SDS011;27754;45.414;11.084;2024-01-25T05:24:21;76.97;;;42.40;;
42096;SDS011;27754;45.414;11.084;2024-01-25T05:26:48;72.53;;;39.17;;
42096;SDS011;27754;45.414;11.084;2024-01-25T05:29:15;67.22;;;40.92;;
42096;SDS011;27754;45.414;11.084;2024-01-25T05:31:42;75.82;;;42.35;;
42096;SDS011;27754;45.414;11.084;2024-01-25T05:34:10;74.45;;;41.28;;
42096;SDS011;27754;45.414;11.084;2024-01-25T05:36:37;69.85;;;39.95;;
42096;SDS011;27754;45.414;11.084;2024-01-25T05:39:04;78.10;;;44.45;;
42096;SDS011;27754;45.414;11.084;2024-01-25T05:41:33;72.85;;;43.00;;
42096;SDS011;27754;45.414;11.084;2024-01-25T05:44:00;85.28;;;44.95;;
42096;SDS011;27754;45.414;11.084;2024-01-25T05:46:27;82.15;;;43.25;;
42096;SDS011;27754;45.414;11.084;2024-01-25T05:48:54;86.85;;;47.38;;
42096;SDS011;27754;45.414;11.084;2024-01-25T05:51:22;81.63;;;44.97;;
42096;SDS011;27754;45.414;11.084;2024-01-25T05:53:49;76.70;;;43.00;;
42096;SDS011;27754;45.414;11.084;2024-01-25T05:56:16;78.13;;;45.75;;
42096;SDS011;27754;45.414;11.084;2024-01-25T05:58:43;81.28;;;45.58;;
42096;SDS011;27754;45.414;11.084;2024-01-25T06:01:10;81.63;;;47.03;;
42096;SDS011;27754;45.414;11.084;2024-01-25T06:03:37;79.55;;;44.05;;
42096;SDS011;27754;45.414;11.084;2024-01-25T06:06:05;78.95;;;46.33;;
42096;SDS011;27754;45.414;11.084;2024-01-25T06:08:34;83.53;;;45.15;;
42096;SDS011;27754;45.414;11.084;2024-01-25T06:11:02;84.47;;;47.63;;
42096;SDS011;27754;45.414;11.084;2024-01-25T06:13:29;79.43;;;47.15;;
42096;SDS011;27754;45.414;11.084;2024-01-25T06:15:58;81.93;;;45.45;;
42096;SDS011;27754;45.414;11.084;2024-01-25T06:18:26;80.10;;;44.17;;
42096;SDS011;27754;45.414;11.084;2024-01-25T06:20:53;78.80;;;47.72;;
42096;SDS011;27754;45.414;11.084;2024-01-25T06:23:20;82.90;;;47.85;;
42096;SDS011;27754;45.414;11.084;2024-01-25T06:25:47;80.13;;;46.78;;
42096;SDS011;27754;45.414;11.084;2024-01-25T06:28:14;81.93;;;47.08;;
42096;SDS011;27754;45.414;11.084;2024-01-25T06:30:41;77.80;;;44.63;;
42096;SDS011;27754;45.414;11.084;2024-01-25T06:33:08;79.53;;;45.60;;
42096;SDS011;27754;45.414;11.084;2024-01-25T06:35:35;81.80;;;46.40;;
42096;SDS011;27754;45.414;11.084;2024-01-25T06:38:02;86.97;;;47.42;;
42096;SDS011;27754;45.414;11.084;2024-01-25T06:40:29;82.18;;;45.28;;
42096;SDS011;27754;45.414;11.084;2024-01-25T06:42:56;82.82;;;46.85;;
42096;SDS011;27754;45.414;11.084;2024-01-25T06:45:23;80.03;;;48.00;;
42096;SDS011;27754;45.414;11.084;2024-01-25T06:47:50;83.25;;;47.25;;
42096;SDS011;27754;45.414;11.084;2024-01-25T06:50:17;81.85;;;44.75;;
42096;SDS011;27754;45.414;11.084;2024-01-25T06:52:45;87.47;;;48.53;;
42096;SDS011;27754;45.414;11.084;2024-01-25T06:55:12;79.20;;;45.67;;
42096;SDS011;27754;45.414;11.084;2024-01-25T06:57:39;87.53;;;48.83;;
42096;SDS011;27754;45.414;11.084;2024-01-25T07:00:06;81.22;;;48.53;;
42096;SDS011;27754;45.414;11.084;2024-01-25T07:02:35;85.93;;;48.15;;
42096;SDS011;27754;45.414;11.084;2024-01-25T07:05:02;79.40;;;48.13;;
42096;SDS011;27754;45.414;11.084;2024-01-25T07:07:30;81.05;;;49.08;;
42096;SDS011;27754;45.414;11.084;2024-01-25T07:09:59;81.60;;;48.35;;
42096;SDS011;27754;45.414;11.084;2024-01-25T07:12:27;85.07;;;50.30;;
42096;SDS011;27754;45.414;11.084;2024-01-25T07:14:55;84.88;;;47.40;;
42096;SDS011;27754;45.414;11.084;2024-01-25T07:17:22;87.90;;;47.75;;
42096;SDS011;27754;45.414;11.084;2024-01-25T07:19:49;96.05;;;47.72;;
42096;SDS011;27754;45.414;11.084;2024-01-25T07:22:16;86.85;;;46.70;;
42096;SDS011;27754;45.414;11.084;2024-01-25T07:24:45;81.03;;;46.30;;
42096;SDS011;27754;45.414;11.084;2024-01-25T07:27:12;79.68;;;44.72;;
42096;SDS011;27754;45.414;11.084;2024-01-25T07:29:39;81.25;;;45.28;;
42096;SDS011;27754;45.414;11.084;2024-01-25T07:32:06;81.28;;;47.75;;
42096;SDS011;27754;45.414;11.084;2024-01-25T07:34:33;85.30;;;46.15;;
42096;SDS011;27754;45.414;11.084;2024-01-25T07:37:00;89.20;;;48.05;;
42096;SDS011;27754;45.414;11.084;2024-01-25T07:39:28;78.25;;;45.72;;
42096;SDS011;27754;45.414;11.084;2024-01-25T07:41:54;82.47;;;45.97;;
42096;SDS011;27754;45.414;11.084;2024-01-25T07:44:21;79.75;;;44.38;;
42096;SDS011;27754;45.414;11.084;2024-01-25T07:46:48;85.30;;;45.78;;
42096;SDS011;27754;45.414;11.084;2024-01-25T07:49:16;79.88;;;45.45;;
42096;SDS011;27754;45.414;11.084;2024-01-25T07:51:43;79.65;;;46.13;;
42096;SDS011;27754;45.414;11.084;2024-01-25T07:54:10;82.90;;;44.28;;
42096;SDS011;27754;45.414;11.084;2024-01-25T07:56:37;81.03;;;44.78;;
42096;SDS011;27754;45.414;11.084;2024-01-25T07:59:04;83.32;;;45.90;;
42096;SDS011;27754;45.414;11.084;2024-01-25T08:01:31;80.68;;;44.25;;
42096;SDS011;27754;45.414;11.084;2024-01-25T08:03:58;84.90;;;47.08;;
42096;SDS011;27754;45.414;11.084;2024-01-25T08:06:26;80.25;;;46.85;;
42096;SDS011;27754;45.414;11.084;2024-01-25T08:08:53;83.82;;;47.42;;
42096;SDS011;27754;45.414;11.084;2024-01-25T08:11:20;86.28;;;49.50;;
42096;SDS011;27754;45.414;11.084;2024-01-25T08:13:47;81.88;;;47.22;;
42096;SDS011;27754;45.414;11.084;2024-01-25T08:16:16;83.63;;;49.42;;
42096;SDS011;27754;45.414;11.084;2024-01-25T08:18:47;89.38;;;51.42;;
42096;SDS011;27754;45.414;11.084;2024-01-25T08:21:16;94.78;;;51.10;;
42096;SDS011;27754;45.414;11.084;2024-01-25T08:23:43;85.75;;;50.35;;
42096;SDS011;27754;45.414;11.084;2024-01-25T08:26:10;80.95;;;49.00;;
42096;SDS011;27754;45.414;11.084;2024-01-25T08:28:39;80.55;;;49.33;;
42096;SDS011;27754;45.414;11.084;2024-01-25T08:31:06;76.65;;;47.45;;
42096;SDS011;27754;45.414;11.084;2024-01-25T08:33:34;81.63;;;49.10;;
42096;SDS011;27754;45.414;11.084;2024-01-25T08:36:01;80.90;;;47.08;;
42096;SDS011;27754;45.414;11.084;2024-01-25T08:38:29;83.53;;;48.47;;
42096;SDS011;27754;45.414;11.084;2024-01-25T08:40:56;82.15;;;48.72;;
42096;SDS011;27754;45.414;11.084;2024-01-25T08:43:23;82.55;;;49.85;;
42096;SDS011;27754;45.414;11.084;2024-01-25T08:45:50;82.07;;;49.33;;
42096;SDS011;27754;45.414;11.084;2024-01-25T08:48:17;83.32;;;49.92;;
42096;SDS011;27754;45.414;11.084;2024-01-25T08:50:45;88.32;;;50.13;;
42096;SDS011;27754;45.414;11.084;2024-01-25T08:53:12;77.55;;;48.22;;
42096;SDS011;27754;45.414;11.084;2024-01-25T08:55:39;82.80;;;49.33;;
42096;SDS011;27754;45.414;11.084;2024-01-25T08:58:06;82.63;;;49.03;;
42096;SDS011;27754;45.414;11.084;2024-01-25T09:00:33;82.70;;;50.35;;
42096;SDS011;27754;45.414;11.084;2024-01-25T09:03:00;84.30;;;48.53;;
42096;SDS011;27754;45.414;11.084;2024-01-25T09:05:27;89.47;;;50.40;;
42096;SDS011;27754;45.414;11.084;2024-01-25T09:07:55;76.28;;;47.63;;
42096;SDS011;27754;45.414;11.084;2024-01-25T09:10:24;72.60;;;46.45;;
42096;SDS011;27754;45.414;11.084;2024-01-25T09:12:51;82.70;;;50.15;;
42096;SDS011;27754;45.414;11.084;2024-01-25T09:15:18;79.95;;;51.30;;
42096;SDS011;27754;45.414;11.084;2024-01-25T09:17:45;90.60;;;53.42;;
42096;SDS011;27754;45.414;11.084;2024-01-25T09:20:13;84.97;;;53.05;;
42096;SDS011;27754;45.414;11.084;2024-01-25T09:22:40;82.40;;;50.95;;
42096;SDS011;27754;45.414;11.084;2024-01-25T09:25:07;83.80;;;51.13;;
42096;SDS011;27754;45.414;11.084;2024-01-25T09:27:35;77.72;;;51.75;;
42096;SDS011;27754;45.414;11.084;2024-01-25T09:30:05;82.88;;;51.03;;
42096;SDS011;27754;45.414;11.084;2024-01-25T09:32:32;82.85;;;51.83;;
42096;SDS011;27754;45.414;11.084;2024-01-25T09:35:00;85.35;;;53.33;;
42096;SDS011;27754;45.414;11.084;2024-01-25T09:37:27;81.25;;;53.78;;
42096;SDS011;27754;45.414;11.084;2024-01-25T09:39:56;83.85;;;52.67;;
42096;SDS011;27754;45.414;11.084;2024-01-25T09:42:26;79.97;;;50.05;;
42096;SDS011;27754;45.414;11.084;2024-01-25T09:44:54;89.10;;;51.30;;
42096;SDS011;27754;45.414;11.084;2024-01-25T09:47:21;83.28;;;52.33;;
42096;SDS011;27754;45.414;11.084;2024-01-25T09:49:48;76.43;;;49.70;;
42096;SDS011;27754;45.414;11.084;2024-01-25T09:52:15;80.03;;;50.25;;
42096;SDS011;27754;45.414;11.084;2024-01-25T09:54:46;77.63;;;49.58;;
42096;SDS011;27754;45.414;11.084;2024-01-25T09:57:16;83.30;;;52.28;;
42096;SDS011;27754;45.414;11.084;2024-01-25T09:59:45;78.68;;;49.97;;
42096;SDS011;27754;45.414;11.084;2024-01-25T10:02:13;80.63;;;49.88;;
42096;SDS011;27754;45.414;11.084;2024-01-25T10:04:40;79.47;;;50.80;;
42096;SDS011;27754;45.414;11.084;2024-01-25T10:07:08;79.18;;;49.45;;
42096;SDS011;27754;45.414;11.084;2024-01-25T10:09:39;81.90;;;50.75;;
42096;SDS011;27754;45.414;11.084;2024-01-25T10:12:07;79.07;;;50.53;;
42096;SDS011;27754;45.414;11.084;2024-01-25T10:14:44;74.45;;;48.92;;
42096;SDS011;27754;45.414;11.084;2024-01-25T10:17:11;79.35;;;49.83;;
42096;SDS011;27754;45.414;11.084;2024-01-25T10:19:42;74.70;;;49.20;;
42096;SDS011;27754;45.414;11.084;2024-01-25T10:22:11;73.80;;;49.85;;
42096;SDS011;27754;45.414;11.084;2024-01-25T10:24:41;77.53;;;48.58;;
42096;SDS011;27754;45.414;11.084;2024-01-25T10:27:08;70.90;;;46.63;;
42096;SDS011;27754;45.414;11.084;2024-01-25T10:29:36;73.82;;;48.63;;
42096;SDS011;27754;45.414;11.084;2024-01-25T10:32:04;73.72;;;47.38;;
42096;SDS011;27754;45.414;11.084;2024-01-25T10:34:37;74.97;;;47.53;;
42096;SDS011;27754;45.414;11.084;2024-01-25T10:37:05;68.00;;;46.20;;
42096;SDS011;27754;45.414;11.084;2024-01-25T10:39:34;69.90;;;46.10;;
42096;SDS011;27754;45.414;11.084;2024-01-25T10:42:01;68.35;;;44.72;;
42096;SDS011;27754;45.414;11.084;2024-01-25T10:44:28;64.53;;;43.08;;
42096;SDS011;27754;45.414;11.084;2024-01-25T10:46:55;66.30;;;42.67;;
42096;SDS011;27754;45.414;11.084;2024-01-25T10:49:22;59.17;;;39.40;;
42096;SDS011;27754;45.414;11.084;2024-01-25T10:51:51;62.70;;;40.97;;
42096;SDS011;27754;45.414;11.084;2024-01-25T10:54:19;58.08;;;38.90;;
42096;SDS011;27754;45.414;11.084;2024-01-25T10:56:47;63.72;;;41.53;;
42096;SDS011;27754;45.414;11.084;2024-01-25T10:59:15;64.03;;;41.13;;
42096;SDS011;27754;45.414;11.084;2024-01-25T11:01:44;59.22;;;39.53;;
42096;SDS011;27754;45.414;11.084;2024-01-25T11:04:12;56.28;;;38.03;;
42096;SDS011;27754;45.414;11.084;2024-01-25T11:06:45;63.30;;;39.88;;
42096;SDS011;27754;45.414;11.084;2024-01-25T11:09:17;59.95;;;37.83;;
42096;SDS011;27754;45.414;11.084;2024-01-25T11:11:48;58.65;;;37.03;;
42096;SDS011;27754;45.414;11.084;2024-01-25T11:14:16;61.35;;;39.28;;
42096;SDS011;27754;45.414;11.084;2024-01-25T11:16:45;61.05;;;38.50;;
42096;SDS011;27754;45.414;11.084;2024-01-25T11:19:17;56.47;;;38.45;;
42096;SDS011;27754;45.414;11.084;2024-01-25T11:21:46;57.50;;;37.88;;
42096;SDS011;27754;45.414;11.084;2024-01-25T11:24:19;71.75;;;39.92;;
42096;SDS011;27754;45.414;11.084;2024-01-25T11:26:48;55.60;;;37.85;;
42096;SDS011;27754;45.414;11.084;2024-01-25T11:29:16;64.82;;;40.90;;
42096;SDS011;27754;45.414;11.084;2024-01-25T11:31:45;57.45;;;37.38;;
42096;SDS011;27754;45.414;11.084;2024-01-25T11:34:13;55.80;;;36.92;;
42096;SDS011;27754;45.414;11.084;2024-01-25T11:36:42;57.90;;;38.35;;
42096;SDS011;27754;45.414;11.084;2024-01-25T11:39:13;57.67;;;37.97;;
42096;SDS011;27754;45.414;11.084;2024-01-25T11:41:43;53.90;;;37.72;;
42096;SDS011;27754;45.414;11.084;2024-01-25T11:44:11;56.60;;;38.40;;
42096;SDS011;27754;45.414;11.084;2024-01-25T11:46:39;54.88;;;36.80;;
42096;SDS011;27754;45.414;11.084;2024-01-25T11:49:07;56.80;;;37.83;;
42096;SDS011;27754;45.414;11.084;2024-01-25T11:51:34;59.08;;;39.53;;
42096;SDS011;27754;45.414;11.084;2024-01-25T11:54:02;58.50;;;38.83;;
42096;SDS011;27754;45.414;11.084;2024-01-25T11:56:33;54.42;;;39.25;;
42096;SDS011;27754;45.414;11.084;2024-01-25T11:59:05;58.58;;;37.10;;
42096;SDS011;27754;45.414;11.084;2024-01-25T12:01:33;62.00;;;38.47;;
42096;SDS011;27754;45.414;11.084;2024-01-25T12:04:00;57.75;;;38.00;;
42096;SDS011;27754;45.414;11.084;2024-01-25T12:06:28;60.15;;;40.05;;
42096;SDS011;27754;45.414;11.084;2024-01-25T12:09:05;60.78;;;38.22;;
42096;SDS011;27754;45.414;11.084;2024-01-25T12:11:34;57.42;;;38.47;;
42096;SDS011;27754;45.414;11.084;2024-01-25T12:14:01;61.13;;;39.50;;
42096;SDS011;27754;45.414;11.084;2024-01-25T12:16:29;57.17;;;39.08;;
42096;SDS011;27754;45.414;11.084;2024-01-25T12:18:59;62.03;;;40.47;;
42096;SDS011;27754;45.414;11.084;2024-01-25T12:21:26;63.28;;;41.83;;
42096;SDS011;27754;45.414;11.084;2024-01-25T12:23:53;62.88;;;38.00;;
42096;SDS011;27754;45.414;11.084;2024-01-25T12:26:20;56.63;;;39.58;;
42096;SDS011;27754;45.414;11.084;2024-01-25T12:28:47;62.05;;;40.90;;
42096;SDS011;27754;45.414;11.084;2024-01-25T12:31:16;55.75;;;38.75;;
42096;SDS011;27754;45.414;11.084;2024-01-25T12:33:44;57.28;;;39.97;;
42096;SDS011;27754;45.414;11.084;2024-01-25T12:36:11;57.00;;;39.65;;
42096;SDS011;27754;45.414;11.084;2024-01-25T12:38:38;61.10;;;41.65;;
42096;SDS011;27754;45.414;11.084;2024-01-25T12:41:05;59.42;;;40.08;;
42096;SDS011;27754;45.414;11.084;2024-01-25T12:43:32;55.55;;;39.28;;
42096;SDS011;27754;45.414;11.084;2024-01-25T12:46:00;58.03;;;39.60;;
42096;SDS011;27754;45.414;11.084;2024-01-25T12:48:43;58.85;;;38.85;;
42096;SDS011;27754;45.414;11.084;2024-01-25T12:51:13;58.80;;;39.72;;
42096;SDS011;27754;45.414;11.084;2024-01-25T12:53:41;61.90;;;41.35;;
42096;SDS011;27754;45.414;11.084;2024-01-25T12:56:08;65.13;;;42.28;;
42096;SDS011;27754;45.414;11.084;2024-01-25T12:58:36;62.88;;;43.15;;
42096;SDS011;27754;45.414;11.084;2024-01-25T13:01:04;61.30;;;40.53;;
42096;SDS011;27754;45.414;11.084;2024-01-25T13:03:32;60.97;;;40.45;;
42096;SDS011;27754;45.414;11.084;2024-01-25T13:06:03;60.75;;;38.50;;
42096;SDS011;27754;45.414;11.084;2024-01-25T13:08:30;58.80;;;38.80;;
42096;SDS011;27754;45.414;11.084;2024-01-25T13:10:57;62.17;;;41.72;;
42096;SDS011;27754;45.414;11.084;2024-01-25T13:13:24;56.72;;;40.22;;
42096;SDS011;27754;45.414;11.084;2024-01-25T13:15:52;57.30;;;40.03;;
42096;SDS011;27754;45.414;11.084;2024-01-25T13:18:19;58.28;;;40.58;;
42096;SDS011;27754;45.414;11.084;2024-01-25T13:20:47;58.10;;;40.15;;
42096;SDS011;27754;45.414;11.084;2024-01-25T13:23:14;62.97;;;41.47;;
42096;SDS011;27754;45.414;11.084;2024-01-25T13:25:41;55.60;;;38.80;;
42096;SDS011;27754;45.414;11.084;2024-01-25T13:28:08;54.47;;;38.55;;
42096;SDS011;27754;45.414;11.084;2024-01-25T13:30:35;54.67;;;38.25;;
42096;SDS011;27754;45.414;11.084;2024-01-25T13:33:03;61.00;;;41.35;;
42096;SDS011;27754;45.414;11.084;2024-01-25T13:35:30;58.78;;;39.33;;
42096;SDS011;27754;45.414;11.084;2024-01-25T13:37:57;59.03;;;38.47;;
42096;SDS011;27754;45.414;11.084;2024-01-25T13:40:27;53.60;;;37.65;;
42096;SDS011;27754;45.414;11.084;2024-01-25T13:42:54;56.97;;;37.47;;
42096;SDS011;27754;45.414;11.084;2024-01-25T13:45:21;62.72;;;39.88;;
42096;SDS011;27754;45.414;11.084;2024-01-25T13:50:27;54.33;;;37.85;;
42096;SDS011;27754;45.414;11.084;2024-01-25T13:52:55;55.88;;;37.28;;
42096;SDS011;27754;45.414;11.084;2024-01-25T13:55:22;58.70;;;39.30;;
42096;SDS011;27754;45.414;11.084;2024-01-25T13:57:49;58.85;;;39.35;;
42096;SDS011;27754;45.414;11.084;2024-01-25T14:00:16;57.58;;;40.42;;
42096;SDS011;27754;45.414;11.084;2024-01-25T14:02:43;58.65;;;40.97;;
42096;SDS011;27754;45.414;11.084;2024-01-25T14:05:11;59.40;;;39.05;;
42096;SDS011;27754;45.414;11.084;2024-01-25T14:07:39;62.33;;;39.72;;
42096;SDS011;27754;45.414;11.084;2024-01-25T14:10:06;56.75;;;41.00;;
42096;SDS011;27754;45.414;11.084;2024-01-25T14:12:33;59.05;;;39.40;;
42096;SDS011;27754;45.414;11.084;2024-01-25T14:15:01;59.75;;;39.85;;
42096;SDS011;27754;45.414;11.084;2024-01-25T14:17:29;56.70;;;38.08;;